INFORMAÇÕES METEOROLÓGICAS
METAR FOR KCXP
ADDS - METARS form results

(1153 UTC 16 February 2019)
Data provider http://aviationweather.gov/metar/data/
 
METAR text: KCXP 161135Z AUTO 00000KT 9SM -SN BKN032 OVC037 M01/M07 A2989 RMK AO2
Conditions at: KCXP (CARSON CITY , NV, US) observed 1135 UTC 16 February 2019
Temperature: -1.0°C (30°F)
Dewpoint: -7.0°C (19°F) [RH = 64%]
Pressure (altimeter): 29.89 inches Hg (1012.3 mb)
Winds: calm
Visibility: 9 miles (14 km)
Ceiling: 3200 feet AGL
Clouds: broken clouds at 3200 feet AGL
overcast cloud deck at 3700 feet AGL
Weather: -SN  (light snow)

METAR text: KCXP 161115Z AUTO 22004KT 10SM BKN036 OVC043 M01/M08 A2988 RMK AO2
Conditions at: KCXP (CARSON CITY , NV, US) observed 1115 UTC 16 February 2019
Temperature: -1.0°C (30°F)
Dewpoint: -8.0°C (18°F) [RH = 59%]
Pressure (altimeter): 29.88 inches Hg (1011.9 mb)
Winds: from the SW (220 degrees) at 5 MPH (4 knots; 2.1 m/s)
Visibility: 10 or more miles (16+ km)
Ceiling: 3600 feet AGL
Clouds: broken clouds at 3600 feet AGL
overcast cloud deck at 4300 feet AGL
Weather: automated observation with no human augmentation;
there may or may not be significant weather present at this time

METAR text: KCXP 161055Z AUTO 20004KT 10SM OVC044 M01/M08 A2988 RMK AO2
Conditions at: KCXP (CARSON CITY , NV, US) observed 1055 UTC 16 February 2019
Temperature: -1.0°C (30°F)
Dewpoint: -8.0°C (18°F) [RH = 59%]
Pressure (altimeter): 29.88 inches Hg (1011.9 mb)
Winds: from the SSW (200 degrees) at 5 MPH (4 knots; 2.1 m/s)
Visibility: 10 or more miles (16+ km)
Ceiling: 4400 feet AGL
Clouds: overcast cloud deck at 4400 feet AGL
Weather: automated observation with no human augmentation;
there may or may not be significant weather present at this time

Forecast for: KCXP (CARSON CITY , NV, US)
Text: KCXP 161120Z 1612/1712 VRB04KT P6SM SCT045 BKN050
Forecast period: 1200 to 1400 UTC 16 February 2019
Forecast type: FROM: standard forecast or significant change
Winds: variable direction winds at 5 MPH (4 knots; 2.1 m/s)
Visibility: 6 or more miles 10+ km)
Ceiling: 5000 feet AGL
Clouds: scattered clouds at 4500 feet AGL
broken clouds at 5000 feet AGL
Weather: no significant weather forecast for this period
Text: FM161400 22009KT P6SM VCSH SCT010 BKN025
Forecast period: 1400 to 1700 UTC 16 February 2019
Forecast type: FROM: standard forecast or significant change
Winds: from the SW (220 degrees) at 10 MPH (9 knots; 4.6 m/s)
Visibility: 6 or more miles 10+ km)
Ceiling: 2500 feet AGL
Clouds: scattered clouds at 1000 feet AGL
broken clouds at 2500 feet AGL
Weather: VCSH  (showers in vicinity)
Text: FM161700 26011G19KT 4SM -SHSN SCT012 OVC020
Forecast period: 1700 UTC 16 February 2019 to 0000 UTC 17 February 2019
Forecast type: FROM: standard forecast or significant change
Winds: from the W (260 degrees) at 13 MPH (11 knots; 5.7 m/s)
gusting to 22 MPH (19 knots; 9.8 m/s)
Visibility: 4 miles (6 km)
Ceiling: 2000 feet AGL
Clouds: scattered clouds at 1200 feet AGL
overcast cloud deck at 2000 feet AGL
Weather: -SHSN  (light snow showers)
Text: FM170000 27007KT P6SM VCSH SCT020 BKN045
Forecast period: 0000 to 0600 UTC 17 February 2019
Forecast type: FROM: standard forecast or significant change
Winds: from the W (270 degrees) at 8 MPH (7 knots; 3.6 m/s)
Visibility: 6 or more miles 10+ km)
Ceiling: 4500 feet AGL
Clouds: scattered clouds at 2000 feet AGL
broken clouds at 4500 feet AGL
Weather: VCSH  (showers in vicinity)
Text: FM170600 VRB03KT 6SM -SHSN SCT015 BKN035 BKN080
Forecast period: 0600 to 1200 UTC 17 February 2019
Forecast type: FROM: standard forecast or significant change
Winds: variable direction winds at 3 MPH (3 knots; 1.5 m/s)
Visibility: 6 miles (10 km)
Ceiling: 3500 feet AGL
Clouds: scattered clouds at 1500 feet AGL
broken clouds at 3500 feet AGL
broken clouds at 8000 feet AGL
Weather: -SHSN  (light snow showers)

 MAPA DO AEROPORTO

 INFORMAÇÕES DA PISTA
Pista 09 Tamanho da pista 5906 ft Largura da pista 75 ft
Elevação da pista 4697 ft Ranhura da pista 0 ft Proa da pista 107
Pista 27 Tamanho da pista 5906 ft Largura da pista 75 ft
Elevação da pista 4686 ft Ranhura da pista 0 ft Proa da pista 287

 FREQUÊNCIAS DO AEROPORTO
Tipo AWOS Nome AWOS 3 Frequência 119.925 MHZ
Tipo UNIC Nome CTAF/UNICO Frequência 123 MHZ

 AUXÍLIOS DE NAVEGAÇÃO PRÓXIMOS AO AEROPORTO





Powered by Virtual Airlines Manager [v2.6.2]